Time;durP1;ratioP1;P1;durP2;ratioP2;P2;SDS_P1;SDS_P2;PMS_P1;PMS_P2;Temp;Humidity;BMP_temperature;BMP_pressure;BME280_temperature;BME280_humidity;BME280_pressure;Samples;Min_cycle;Max_cycle;Signal;HPM_P1;HPM_P2
2022/05/15 00:01:24;;;;;;;2.20;1.43;;;;;;;13.02;48.06;101966.16;5001791;28;97272;-83
2022/05/15 00:03:50;;;;;;;2.77;1.80;;;;;;;12.98;48.14;101949.03;4985657;28;96998;-83
2022/05/15 00:06:15;;;;;;;3.43;1.90;;;;;;;12.95;48.25;101946.47;4994602;28;97355;-83
2022/05/15 00:08:41;;;;;;;4.67;2.20;;;;;;;12.89;48.26;101935.31;4995260;28;97420;-84
2022/05/15 00:11:13;;;;;;;3.87;1.60;;;;;;;12.86;48.74;101935.50;4981737;28;97562;-83
2022/05/15 00:13:40;;;;;;;4.27;1.70;;;;;;;12.81;48.33;101953.50;4986846;28;102649;-83
2022/05/15 00:16:06;;;;;;;1.40;1.00;;;;;;;12.75;48.32;101936.84;4993456;28;96839;-83
2022/05/15 00:18:32;;;;;;;2.80;1.43;;;;;;;12.72;48.34;101937.03;4987631;28;97239;-83
2022/05/15 00:20:57;;;;;;;3.57;1.90;;;;;;;12.68;48.73;101947.50;4995288;28;100739;-83
2022/05/15 00:23:24;;;;;;;2.07;1.30;;;;;;;12.64;48.47;101931.13;4979010;28;99436;-85
2022/05/15 00:25:51;;;;;;;3.40;1.60;;;;;;;12.59;48.56;101934.56;4986988;28;96963;-83
2022/05/15 00:28:16;;;;;;;4.73;1.50;;;;;;;12.51;48.76;101946.44;4994475;28;96940;-83
2022/05/15 00:30:42;;;;;;;3.10;1.50;;;;;;;12.46;48.74;101936.06;4993882;28;97711;-83
2022/05/15 00:33:08;;;;;;;3.60;1.57;;;;;;;12.45;49.05;101945.59;4993307;28;97096;-82
2022/05/15 00:35:35;;;;;;;4.03;1.27;;;;;;;12.43;48.88;101946.03;4987539;28;96737;-85
2022/05/15 00:38:02;;;;;;;3.37;1.50;;;;;;;12.39;48.74;101945.47;4994670;28;96918;-83
2022/05/15 00:40:28;;;;;;;3.73;1.60;;;;;;;12.34;48.93;101940.59;4979076;28;98785;-83
2022/05/15 00:42:54;;;;;;;6.17;1.70;;;;;;;12.29;48.98;101932.22;4990702;28;98059;-83
2022/05/15 00:45:21;;;;;;;3.60;1.80;;;;;;;12.25;48.93;101926.13;4985217;28;97264;-83
2022/05/15 00:47:47;;;;;;;4.20;1.50;;;;;;;12.20;48.99;101977.22;4984854;28;97210;-83
2022/05/15 00:50:17;;;;;;;3.20;1.50;;;;;;;12.15;49.11;101943.97;4990251;28;98588;-83
2022/05/15 00:52:48;;;;;;;4.00;1.60;;;;;;;12.10;49.38;101939.13;4981703;28;102227;-83
2022/05/15 00:55:42;;;;;;;1.60;1.50;;;;;;;12.02;50.22;101939.47;4980513;28;99777;-83
2022/05/15 00:58:18;;;;;;;2.70;1.53;;;;;;;12.00;50.14;101943.94;4972634;28;97238;-83
2022/05/15 01:00:44;;;;;;;4.73;1.50;;;;;;;11.97;49.29;101942.88;5000338;28;97798;-83
2022/05/15 01:03:15;;;;;;;2.20;1.30;;;;;;;11.95;49.03;101950.88;4985930;28;96992;-83
2022/05/15 01:05:45;;;;;;;2.13;1.23;;;;;;;11.86;49.35;101942.66;4983932;28;96804;-82
2022/05/15 01:08:11;;;;;;;2.40;1.40;;;;;;;11.81;49.26;101943.31;5001899;28;96963;-83
2022/05/15 01:10:43;;;;;;;5.67;1.60;;;;;;;11.78;49.53;101941.47;4977189;28;97284;-83
2022/05/15 01:13:10;;;;;;;3.17;1.40;;;;;;;11.75;49.70;101939.66;4987520;28;98176;-84
2022/05/15 01:15:37;;;;;;;1.97;1.80;;;;;;;11.75;49.72;101945.16;4984509;28;96760;-83
2022/05/15 01:18:08;;;;;;;8.57;2.50;;;;;;;11.75;49.95;101945.16;4996624;28;97244;-83
2022/05/15 01:20:34;;;;;;;2.70;1.80;;;;;;;11.70;49.60;101945.81;4985716;28;98940;-82
2022/05/15 01:22:59;;;;;;;3.40;1.10;;;;;;;11.66;49.56;101944.44;4983207;28;97052;-83
2022/05/15 01:25:28;;;;;;;3.97;2.07;;;;;;;11.57;49.50;101948.00;4999245;28;96964;-83
2022/05/15 01:28:01;;;;;;;4.80;1.97;;;;;;;11.58;50.03;101938.50;4988143;28;96804;-83
2022/05/15 01:30:27;;;;;;;3.07;1.40;;;;;;;11.50;49.46;101942.84;4998785;28;96880;-83
2022/05/15 01:32:53;;;;;;;2.03;1.50;;;;;;;11.47;49.48;101943.00;4981714;28;97617;-83
2022/05/15 01:35:19;;;;;;;6.30;2.00;;;;;;;11.40;49.54;101938.59;4982834;28;97259;-83
2022/05/15 01:37:44;;;;;;;3.13;1.40;;;;;;;11.33;49.72;101947.22;4980859;28;97316;-83
2022/05/15 01:40:10;;;;;;;2.00;1.13;;;;;;;11.31;49.77;101933.13;5001491;28;96754;-83
2022/05/15 01:42:36;;;;;;;2.87;1.70;;;;;;;11.28;49.75;101945.84;4985070;28;99660;-83
2022/05/15 01:45:02;;;;;;;2.93;1.40;;;;;;;11.21;49.91;101945.41;5000803;28;97297;-83
2022/05/15 01:47:27;;;;;;;5.60;2.40;;;;;;;11.18;49.94;101946.34;5005518;28;96930;-83
2022/05/15 01:49:53;;;;;;;4.27;2.13;;;;;;;11.16;49.94;101944.03;4992766;28;96733;-83
2022/05/15 01:52:18;;;;;;;3.00;1.77;;;;;;;11.13;49.89;101947.75;5006826;28;97625;-83
2022/05/15 01:54:44;;;;;;;2.10;1.63;;;;;;;11.10;49.82;101948.66;5006587;28;96979;-84
2022/05/15 01:57:09;;;;;;;4.40;1.63;;;;;;;11.04;49.88;101953.28;4987728;28;97079;-83
2022/05/15 01:59:34;;;;;;;3.57;1.27;;;;;;;11.02;50.16;101941.19;5002956;28;97528;-83
2022/05/15 02:02:00;;;;;;;4.10;1.73;;;;;;;11.00;50.11;101940.91;4989393;28;100451;-83
2022/05/15 02:04:25;;;;;;;3.57;1.70;;;;;;;10.90;50.25;101942.91;4987118;28;97054;-83
2022/05/15 02:06:51;;;;;;;3.47;1.30;;;;;;;10.93;50.24;101941.97;5003072;28;98298;-83
2022/05/15 02:09:16;;;;;;;2.10;1.43;;;;;;;10.92;50.03;101950.72;5002942;28;96706;-83
2022/05/15 02:11:41;;;;;;;4.73;1.97;;;;;;;10.85;50.11;101940.03;5006558;28;96759;-83
2022/05/15 02:14:08;;;;;;;2.63;1.83;;;;;;;10.81;50.18;101944.94;4988257;28;97375;-83
2022/05/15 02:16:33;;;;;;;5.90;1.80;;;;;;;10.77;50.39;101944.31;5004655;28;96958;-83
2022/05/15 02:18:59;;;;;;;2.23;1.50;;;;;;;10.72;50.35;101953.97;4989533;28;96686;-83
2022/05/15 02:21:25;;;;;;;2.87;1.80;;;;;;;10.72;50.42;101953.97;4999560;28;97440;-83
2022/05/15 02:23:50;;;;;;;3.10;1.90;;;;;;;10.67;50.38;101948.31;4979156;28;96937;-83
2022/05/15 02:26:17;;;;;;;2.80;1.60;;;;;;;10.67;50.44;101973.06;4984306;28;97056;-83
2022/05/15 02:28:43;;;;;;;3.83;1.40;;;;;;;10.66;50.25;101952.28;5003246;28;97185;-83
2022/05/15 02:31:09;;;;;;;3.53;1.80;;;;;;;10.61;50.40;101941.91;4974631;28;98001;-83
2022/05/15 02:33:34;;;;;;;1.93;1.70;;;;;;;10.54;50.47;101960.25;4985080;28;97242;-83
2022/05/15 02:36:01;;;;;;;6.67;1.90;;;;;;;10.52;50.59;101953.69;4986393;28;97376;-83
2022/05/15 02:38:27;;;;;;;2.90;2.00;;;;;;;10.48;50.51;101964.81;5004541;28;97670;-84
2022/05/15 02:40:52;;;;;;;2.37;1.60;;;;;;;10.48;50.45;101951.06;4982101;28;97841;-84
2022/05/15 02:43:17;;;;;;;4.10;1.73;;;;;;;10.44;50.50;101972.47;4998863;28;96759;-84
2022/05/15 02:45:43;;;;;;;1.60;1.50;;;;;;;10.35;50.71;101946.97;5002633;28;97290;-84
2022/05/15 02:51:04;;;;;;;2.93;1.50;;;;;;;10.30;50.50;101961.31;5002567;28;97052;-85
2022/05/15 02:53:42;;;;;;;4.53;1.43;;;;;;;10.27;51.39;101954.75;4980337;28;97465;-85
2022/05/15 02:56:17;;;;;;;5.03;2.00;;;;;;;10.22;51.13;101962.84;4978897;28;98875;-84
2022/05/15 02:58:43;;;;;;;4.50;1.60;;;;;;;10.17;50.57;101944.22;5001621;28;98204;-84
2022/05/15 03:01:09;;;;;;;2.73;1.30;;;;;;;10.13;50.83;101946.34;5000350;28;96972;-84
2022/05/15 03:03:35;;;;;;;1.87;1.37;;;;;;;10.12;50.77;101956.56;5004073;28;96718;-84
2022/05/15 03:06:02;;;;;;;4.40;1.50;;;;;;;10.10;50.74;101953.50;4996268;28;97155;-84
2022/05/15 03:08:27;;;;;;;4.90;1.70;;;;;;;10.04;50.64;101955.31;5002885;28;97026;-83
2022/05/15 03:10:53;;;;;;;2.87;1.80;;;;;;;9.99;50.63;101950.41;4997834;28;96752;-84
2022/05/15 03:13:18;;;;;;;4.50;1.80;;;;;;;9.89;50.98;101948.88;4991499;28;96978;-85
2022/05/15 03:15:44;;;;;;;1.93;1.63;;;;;;;9.88;50.96;101972.09;5008135;28;96879;-84
2022/05/15 03:18:09;;;;;;;2.50;1.70;;;;;;;9.84;50.83;101938.50;5004405;28;98742;-85
2022/05/15 03:20:35;;;;;;;3.60;1.60;;;;;;;9.79;50.99;101928.84;5014160;28;97163;-85
2022/05/15 03:23:00;;;;;;;5.43;1.80;;;;;;;9.82;50.98;101960.16;5000153;28;96772;-84
2022/05/15 03:25:27;;;;;;;1.97;1.37;;;;;;;9.78;50.96;101941.06;5004717;28;96898;-84
2022/05/15 03:27:56;;;;;;;3.10;1.53;;;;;;;9.77;51.03;101947.03;4999911;28;96746;-85
2022/05/15 03:30:22;;;;;;;4.73;1.77;;;;;;;9.75;50.79;101949.47;4994969;28;96857;-84
2022/05/15 03:32:47;;;;;;;4.93;1.73;;;;;;;9.69;50.95;101962.28;4983261;28;97455;-85
2022/05/15 03:35:14;;;;;;;3.93;1.30;;;;;;;9.63;51.04;101956.59;4970417;28;96721;-84
2022/05/15 03:37:40;;;;;;;1.70;1.60;;;;;;;9.62;51.04;101957.06;4985529;28;97682;-84
2022/05/15 03:40:07;;;;;;;3.10;1.30;;;;;;;9.63;50.93;101951.09;4978075;28;100227;-83
2022/05/15 03:42:33;;;;;;;2.60;1.40;;;;;;;9.60;51.05;101954.00;4992354;28;97322;-84
2022/05/15 03:44:58;;;;;;;1.77;1.40;;;;;;;9.57;51.24;101957.66;4983858;28;97417;-84
2022/05/15 03:47:24;;;;;;;2.77;1.40;;;;;;;9.51;51.19;101960.22;4985914;28;98556;-84
2022/05/15 03:49:50;;;;;;;1.60;1.50;;;;;;;9.52;51.12;101963.75;4995255;28;96863;-84
2022/05/15 03:52:16;;;;;;;3.40;1.47;;;;;;;9.49;51.09;101954.44;4988415;28;96959;-84
2022/05/15 03:54:42;;;;;;;1.67;1.23;;;;;;;9.49;51.10;101970.13;4992424;28;97060;-84
2022/05/15 03:57:08;;;;;;;1.83;1.60;;;;;;;9.48;51.04;101957.63;4985745;28;99109;-84
2022/05/15 03:59:36;;;;;;;5.63;1.70;;;;;;;9.43;51.11;101975.47;5003430;28;96830;-84
2022/05/15 04:02:05;;;;;;;3.53;1.47;;;;;;;9.39;51.14;101972.06;4983468;28;97411;-84
2022/05/15 04:04:31;;;;;;;3.40;1.63;;;;;;;9.39;51.32;101985.06;4994126;28;97173;-83
2022/05/15 04:06:57;;;;;;;3.57;1.70;;;;;;;9.38;51.27;101970.56;4989615;28;99405;-84
2022/05/15 04:09:23;;;;;;;2.60;1.37;;;;;;;9.37;51.27;101977.25;4969669;28;96880;-84
2022/05/15 04:11:48;;;;;;;2.33;1.53;;;;;;;9.34;51.14;101972.69;5000425;28;97251;-84
2022/05/15 04:14:14;;;;;;;2.80;1.50;;;;;;;9.34;51.36;101974.66;5003865;28;96848;-84
2022/05/15 04:16:39;;;;;;;2.20;1.50;;;;;;;9.37;51.35;101980.00;5005048;28;97177;-83
2022/05/15 04:19:06;;;;;;;1.67;1.50;;;;;;;9.39;51.19;101985.06;4999678;28;99922;-84
2022/05/15 04:21:40;;;;;;;1.60;1.50;;;;;;;9.38;51.60;101983.53;4975822;28;96830;-83
2022/05/15 04:24:08;;;;;;;2.93;1.67;;;;;;;9.38;51.52;101970.56;4986588;28;97487;-84
2022/05/15 04:26:34;;;;;;;3.33;1.83;;;;;;;9.41;51.51;101993.63;4980366;28;98750;-84
2022/05/15 04:29:00;;;;;;;2.17;1.60;;;;;;;9.41;51.35;101993.63;4986269;28;99382;-84
2022/05/15 04:31:26;;;;;;;2.70;1.20;;;;;;;9.45;51.36;102003.25;5002692;28;96972;-83
2022/05/15 04:33:51;;;;;;;2.33;1.40;;;;;;;9.44;51.44;102011.94;5002005;28;97016;-84
2022/05/15 04:36:16;;;;;;;3.47;1.73;;;;;;;9.44;51.53;101993.47;4991776;28;98675;-84
2022/05/15 04:38:42;;;;;;;2.13;1.50;;;;;;;9.45;51.58;101997.75;5003107;28;97683;-84
2022/05/15 04:41:07;;;;;;;1.47;1.27;;;;;;;9.49;51.52;102012.13;4984436;28;96827;-84
2022/05/15 04:43:33;;;;;;;4.80;2.10;;;;;;;9.53;51.47;101990.75;4998123;28;97271;-84
2022/05/15 04:45:58;;;;;;;2.93;1.50;;;;;;;9.56;51.51;101995.38;4997054;28;96776;-84
2022/05/15 04:48:24;;;;;;;2.17;1.30;;;;;;;9.58;51.36;101994.91;4997403;28;100792;-84
2022/05/15 04:50:49;;;;;;;2.20;1.20;;;;;;;9.59;51.62;101999.16;4999203;28;98231;-83
2022/05/15 04:53:14;;;;;;;2.20;1.80;;;;;;;9.60;51.41;102014.44;5004153;28;96813;-84
2022/05/15 04:55:40;;;;;;;1.70;1.30;;;;;;;9.62;51.45;102006.53;4999250;28;98247;-84
2022/05/15 04:58:05;;;;;;;1.93;1.33;;;;;;;9.65;51.52;102005.63;4985299;28;99507;-84
2022/05/15 05:00:31;;;;;;;2.80;1.63;;;;;;;9.67;51.36;102003.19;4987929;28;97351;-83
2022/05/15 05:02:56;;;;;;;1.50;1.40;;;;;;;9.65;51.78;102017.34;4985652;28;96942;-84
2022/05/15 05:05:22;;;;;;;1.20;1.10;;;;;;;9.63;51.62;102019.78;4997075;28;99034;-83
2022/05/15 05:07:47;;;;;;;1.27;1.20;;;;;;;9.64;51.60;102012.31;4999456;28;97282;-84
2022/05/15 05:10:14;;;;;;;3.33;1.80;;;;;;;9.64;51.84;102015.06;5004001;28;97119;-84
2022/05/15 05:12:39;;;;;;;2.40;1.43;;;;;;;9.67;51.81;102012.19;4986088;28;96731;-84
2022/05/15 05:15:07;;;;;;;6.10;1.70;;;;;;;9.76;51.85;102017.69;4990484;28;98434;-84
2022/05/15 05:17:32;;;;;;;2.53;1.40;;;;;;;9.76;52.00;102016.97;4997975;28;100745;-83
2022/05/15 05:19:58;;;;;;;1.50;1.37;;;;;;;9.81;51.92;102006.13;4997563;28;96916;-84
2022/05/15 05:22:23;;;;;;;4.00;1.50;;;;;;;9.88;52.03;102018.81;5001426;28;96924;-84
2022/05/15 05:24:49;;;;;;;2.80;1.43;;;;;;;9.94;52.11;102028.00;4995914;28;98826;-84
2022/05/15 05:27:14;;;;;;;2.13;1.30;;;;;;;10.01;51.85;102013.19;4985190;28;97578;-84
2022/05/15 05:29:40;;;;;;;2.03;1.10;;;;;;;10.06;52.15;102018.09;4995570;28;96766;-84
2022/05/15 05:32:06;;;;;;;1.70;1.20;;;;;;;10.07;52.02;102019.66;4984174;28;97093;-84
2022/05/15 05:34:31;;;;;;;2.00;1.33;;;;;;;10.13;52.00;102026.88;4985337;28;97150;-84
2022/05/15 05:37:00;;;;;;;1.57;1.47;;;;;;;10.24;52.23;102013.41;4987305;28;97685;-84
2022/05/15 05:39:29;;;;;;;1.47;1.30;;;;;;;10.31;52.16;102023.38;4988123;28;96940;-84
2022/05/15 05:41:55;;;;;;;2.13;1.60;;;;;;;10.40;52.22;102029.63;4990942;28;97281;-84
2022/05/15 05:44:21;;;;;;;2.40;1.57;;;;;;;10.49;52.35;102004.88;4984670;28;97967;-84
2022/05/15 05:46:46;;;;;;;4.20;2.00;;;;;;;10.60;52.45;102015.44;4999973;28;97284;-84
2022/05/15 05:49:11;;;;;;;2.73;1.70;;;;;;;10.72;52.49;102014.53;4996520;28;96901;-84
2022/05/15 05:51:37;;;;;;;1.73;0.90;;;;;;;10.81;52.38;102024.75;4986253;28;97242;-83
2022/05/15 05:54:02;;;;;;;2.10;1.17;;;;;;;10.91;52.63;102024.28;5002471;28;98062;-84
2022/05/15 05:56:28;;;;;;;1.37;1.27;;;;;;;11.04;52.69;102013.09;4986012;28;98498;-84
2022/05/15 05:58:53;;;;;;;1.50;1.23;;;;;;;11.13;52.61;102037.88;4999984;28;97112;-84
2022/05/15 06:01:18;;;;;;;1.27;1.17;;;;;;;11.27;52.69;102017.91;5001233;28;96840;-84
2022/05/15 06:06:28;;;;;;;2.30;1.87;;;;;;;11.51;52.99;102024.28;5002943;28;100048;-84
2022/05/15 06:08:53;;;;;;;4.20;1.90;;;;;;;11.65;52.90;102034.66;5004438;28;96792;-84
2022/05/15 06:11:19;;;;;;;2.70;1.30;;;;;;;11.78;52.99;102015.94;4994219;28;98550;-83
2022/05/15 06:13:44;;;;;;;2.00;1.50;;;;;;;11.96;53.15;102017.81;4979734;28;98799;-83
2022/05/15 06:16:10;;;;;;;4.10;1.73;;;;;;;12.10;53.40;102038.44;4987573;28;98561;-83
2022/05/15 06:18:35;;;;;;;6.73;1.40;;;;;;;12.28;53.44;102024.50;4984310;28;96763;-84
2022/05/15 06:21:00;;;;;;;3.43;1.60;;;;;;;12.45;53.36;102039.44;5002942;28;96678;-84
2022/05/15 06:23:26;;;;;;;3.17;1.43;;;;;;;12.56;53.73;102020.31;4987447;28;100070;-84
2022/05/15 06:25:52;;;;;;;3.77;1.63;;;;;;;12.78;53.74;102017.97;4999791;28;101567;-84
2022/05/15 06:28:17;;;;;;;5.70;1.73;;;;;;;12.96;53.66;102033.63;4985733;28;97001;-84
2022/05/15 06:30:43;;;;;;;3.13;1.63;;;;;;;13.12;53.76;102019.38;4985154;28;97477;-85
2022/05/15 06:33:09;;;;;;;4.67;1.90;;;;;;;13.26;53.79;102011.06;4992271;28;98736;-84
2022/05/15 06:35:34;;;;;;;3.13;1.50;;;;;;;13.44;53.64;102018.38;5000437;28;98000;-84
2022/05/15 06:38:05;;;;;;;3.20;1.90;;;;;;;13.64;54.26;102014.91;5001219;28;97052;-84
2022/05/15 06:40:31;;;;;;;8.47;2.23;;;;;;;13.78;53.59;102019.66;4994910;28;97308;-83
2022/05/15 06:42:57;;;;;;;6.00;1.87;;;;;;;13.93;53.67;102020.38;4998996;28;96975;-84
2022/05/15 06:45:23;;;;;;;4.43;2.20;;;;;;;14.10;53.60;102013.06;4998582;28;97253;-84
2022/05/15 06:47:49;;;;;;;5.43;2.20;;;;;;;14.29;53.53;102019.88;4986280;28;97223;-83
2022/05/15 06:50:15;;;;;;;4.30;1.87;;;;;;;14.45;53.56;102022.09;4975247;28;102632;-84
2022/05/15 06:52:40;;;;;;;7.80;1.80;;;;;;;14.62;53.41;102019.50;5002100;28;96900;-84
2022/05/15 06:55:18;;;;;;;4.13;2.13;;;;;;;14.73;53.45;102017.63;4988081;28;98838;-84
2022/05/15 06:57:44;;;;;;;2.87;1.60;;;;;;;14.92;53.42;102010.50;4998692;28;97246;-84
2022/05/15 07:00:22;;;;;;;3.13;1.87;;;;;;;15.08;54.19;102016.69;4999513;28;97251;-85
2022/05/15 07:02:48;;;;;;;5.37;1.37;;;;;;;15.21;53.02;102012.28;4981732;28;98841;-84
2022/05/15 07:05:25;;;;;;;7.50;2.40;;;;;;;15.37;53.54;102011.66;4996709;28;97315;-85
2022/05/15 07:07:52;;;;;;;2.93;1.60;;;;;;;15.50;52.87;102009.28;4997053;28;96958;-84
2022/05/15 07:10:18;;;;;;;3.83;1.57;;;;;;;15.63;52.70;102020.72;4986378;28;96946;-84
2022/05/15 07:12:44;;;;;;;6.10;2.43;;;;;;;15.76;52.64;102009.19;5004087;28;96989;-84
2022/05/15 07:15:11;;;;;;;3.30;2.00;;;;;;;15.92;52.57;102005.75;5005084;28;97380;-84
2022/05/15 07:17:36;;;;;;;4.40;1.70;;;;;;;16.01;52.40;101997.19;4987319;28;97208;-84
2022/05/15 07:20:03;;;;;;;5.50;1.73;;;;;;;16.18;52.15;102016.72;4994491;28;97457;-85
2022/05/15 07:22:29;;;;;;;2.80;1.57;;;;;;;16.31;52.13;102003.91;5003085;28;97691;-84
2022/05/15 07:24:55;;;;;;;5.03;2.07;;;;;;;16.42;51.98;102011.53;4978331;28;99197;-83
2022/05/15 07:27:20;;;;;;;2.50;1.70;;;;;;;16.57;51.82;102019.69;4982596;28;97847;-82
2022/05/15 07:29:45;;;;;;;1.93;1.67;;;;;;;16.72;51.80;102015.44;4982442;28;97016;-82
2022/05/15 07:32:11;;;;;;;2.07;1.37;;;;;;;16.83;51.33;102020.25;4987536;28;97557;-83
2022/05/15 07:34:39;;;;;;;4.67;2.10;;;;;;;16.96;51.36;102001.06;4995159;28;99748;-82
2022/05/15 07:37:04;;;;;;;8.93;2.20;;;;;;;17.09;51.02;102002.09;4989623;28;97137;-83
2022/05/15 07:39:30;;;;;;;5.27;1.70;;;;;;;17.23;50.76;102017.75;4981546;28;97208;-82
2022/05/15 07:41:56;;;;;;;3.50;1.70;;;;;;;17.39;50.51;102016.22;4981145;28;98931;-83
2022/05/15 07:44:22;;;;;;;4.70;1.63;;;;;;;17.54;50.11;102013.97;5003171;28;96999;-86
2022/05/15 07:46:48;;;;;;;2.80;1.70;;;;;;;17.66;49.97;102012.69;4996402;28;98734;-82
2022/05/15 07:49:15;;;;;;;2.80;1.40;;;;;;;17.79;49.64;102012.16;4996092;28;97035;-84
2022/05/15 07:51:44;;;;;;;3.67;1.93;;;;;;;17.91;49.31;102003.25;4970980;28;97330;-83
2022/05/15 07:54:14;;;;;;;3.73;1.60;;;;;;;18.05;49.04;102004.25;4977824;28;98399;-83
2022/05/15 07:56:40;;;;;;;5.13;1.60;;;;;;;18.15;48.77;101997.09;4999235;28;97202;-84
2022/05/15 07:59:06;;;;;;;2.33;1.30;;;;;;;18.23;48.82;102005.69;5003886;28;96953;-83
2022/05/15 08:01:32;;;;;;;5.17;1.67;;;;;;;18.28;48.35;101997.28;5000449;28;97964;-84
2022/05/15 08:03:58;;;;;;;4.30;1.60;;;;;;;18.31;48.49;102001.84;5004135;28;96916;-82
2022/05/15 08:09:08;;;;;;;3.47;1.50;;;;;;;18.57;48.17;101993.13;5003791;28;97604;-83
2022/05/15 08:11:36;;;;;;;8.00;2.03;;;;;;;18.73;47.95;101991.50;4994759;28;100597;-84
2022/05/15 08:14:04;;;;;;;2.10;1.27;;;;;;;18.85;47.93;102004.88;5001601;28;97008;-84
2022/05/15 08:16:31;;;;;;;4.97;2.03;;;;;;;18.96;47.79;101995.69;4981432;28;97337;-83
2022/05/15 08:24:26;;;;;;;4.07;1.80;;;;;;;19.27;46.93;101995.91;4994694;28;100119;-83
2022/05/15 08:26:52;;;;;;;3.03;1.23;;;;;;;19.38;46.56;101997.88;5001071;28;97250;-83
2022/05/15 08:29:18;;;;;;;4.00;1.60;;;;;;;19.50;46.45;101998.53;5000958;28;97021;-83
2022/05/15 08:31:44;;;;;;;3.93;1.57;;;;;;;19.65;46.28;102021.25;4987216;28;97489;-83
2022/05/15 08:34:10;;;;;;;3.60;1.23;;;;;;;19.80;46.12;102002.03;4982601;28;97221;-83
2022/05/15 08:36:37;;;;;;;3.67;1.60;;;;;;;19.92;45.88;101989.47;5001997;28;96951;-84
2022/05/15 08:39:03;;;;;;;3.30;1.40;;;;;;;20.09;45.68;101981.66;4986849;28;97355;-84
2022/05/15 08:41:31;;;;;;;2.60;1.40;;;;;;;20.27;45.30;101986.50;4989389;28;98504;-84
2022/05/15 08:44:14;;;;;;;3.80;1.60;;;;;;;20.41;45.26;101988.09;5005533;28;99581;-84
2022/05/15 08:46:49;;;;;;;5.77;2.10;;;;;;;20.53;44.20;101978.28;5000089;28;96887;-84
2022/05/15 08:49:33;;;;;;;4.83;2.00;;;;;;;20.66;43.62;101983.19;4987229;28;97447;-83
2022/05/15 08:52:04;;;;;;;2.43;1.53;;;;;;;20.81;43.49;101984.22;4999304;28;99603;-84
2022/05/15 08:54:31;;;;;;;3.10;1.40;;;;;;;20.93;44.09;101979.19;5002313;28;97345;-83
2022/05/15 08:56:56;;;;;;;4.70;1.97;;;;;;;21.03;44.05;101983.16;4986292;28;97062;-84
2022/05/15 08:59:32;;;;;;;11.90;1.97;;;;;;;21.13;41.83;101978.66;4991065;28;97002;-85
2022/05/15 09:01:59;;;;;;;3.53;1.10;;;;;;;21.29;43.64;101985.25;4976369;28;98724;-83
2022/05/15 09:04:26;;;;;;;7.10;2.27;;;;;;;21.47;42.84;101992.84;4985764;28;97232;-84
2022/05/15 09:07:24;;;;;;;1.70;1.60;;;;;;;21.60;41.30;101982.38;4986653;28;99136;-84
2022/05/15 09:09:57;;;;;;;3.97;1.17;;;;;;;21.77;41.09;101987.69;4979316;28;100062;-84
2022/05/15 09:12:25;;;;;;;4.10;1.57;;;;;;;21.79;41.95;101985.09;4995691;28;100230;-83
2022/05/15 09:15:00;;;;;;;4.10;1.97;;;;;;;21.90;42.07;101992.56;4991127;28;97372;-85
2022/05/15 09:17:41;;;;;;;6.30;2.10;;;;;;;22.06;40.68;101992.22;4996685;28;96951;-84
2022/05/15 09:20:14;;;;;;;2.00;1.20;;;;;;;22.21;40.93;101977.66;4999269;28;96615;-84
2022/05/15 09:22:48;;;;;;;3.93;1.67;;;;;;;22.37;40.62;101980.09;4995698;28;102493;-86
2022/05/15 09:25:20;;;;;;;3.20;1.23;;;;;;;22.35;40.37;101981.91;4983303;28;102734;-84
2022/05/15 09:28:12;;;;;;;2.50;1.20;;;;;;;22.40;39.45;101981.06;4996072;28;97191;-84
2022/05/15 09:30:49;;;;;;;8.43;1.47;;;;;;;22.56;38.82;101970.75;4997904;28;97278;-83
2022/05/15 09:33:23;;;;;;;4.53;1.80;;;;;;;22.74;39.69;101970.59;4980215;28;101182;-85
2022/05/15 09:35:50;;;;;;;3.00;1.20;;;;;;;22.95;40.28;101979.81;5003225;28;100702;-85
2022/05/15 09:38:28;;;;;;;3.43;1.40;;;;;;;23.11;38.84;101964.56;5002129;28;97113;-84
2022/05/15 09:43:56;;;;;;;5.80;1.67;;;;;;;23.28;39.75;101966.22;4999042;28;100409;-84
2022/05/15 09:46:25;;;;;;;3.80;1.80;;;;;;;23.45;39.21;101975.75;4985381;28;98663;-84
2022/05/15 09:49:18;;;;;;;2.90;1.63;;;;;;;23.63;37.78;101977.53;4993706;28;96927;-84
2022/05/15 09:51:44;;;;;;;1.73;1.23;;;;;;;23.76;38.71;101973.88;5001887;28;97010;-85
2022/05/15 09:54:28;;;;;;;2.23;1.27;;;;;;;23.81;38.38;101973.72;4985938;28;99806;-86
2022/05/15 09:57:08;;;;;;;4.07;1.60;;;;;;;23.92;36.68;101972.63;4976431;28;97360;-85
2022/05/15 09:59:34;;;;;;;3.57;1.73;;;;;;;23.99;38.21;101963.50;4994241;28;97153;-84
2022/05/15 10:02:00;;;;;;;2.67;1.40;;;;;;;23.97;37.88;101965.34;5000314;28;97320;-85
2022/05/15 10:04:27;;;;;;;2.43;1.50;;;;;;;23.95;37.40;101965.16;4980226;28;99944;-85
2022/05/15 10:06:57;;;;;;;5.30;1.70;;;;;;;23.92;37.11;101952.97;4988632;28;98509;-85
2022/05/15 10:09:35;;;;;;;1.57;0.90;;;;;;;23.95;34.93;101959.53;5007755;28;97474;-84
2022/05/15 10:12:23;;;;;;;5.30;1.77;;;;;;;24.01;35.59;101955.25;4990536;28;97004;-85
2022/05/15 10:14:54;;;;;;;2.10;1.63;;;;;;;24.02;35.61;101956.78;5002282;28;97158;-86
2022/05/15 10:17:23;;;;;;;2.27;1.07;;;;;;;24.03;36.18;101960.31;4996225;28;98280;-84
2022/05/15 10:19:55;;;;;;;1.93;1.20;;;;;;;24.05;35.54;101952.84;4982232;28;96775;-84
2022/05/15 10:22:34;;;;;;;4.63;1.40;;;;;;;24.18;34.88;101952.72;5003039;28;96856;-84
2022/05/15 10:25:12;;;;;;;3.10;1.13;;;;;;;24.36;34.63;101943.22;4982576;28;103134;-83
2022/05/15 10:27:42;;;;;;;2.40;1.00;;;;;;;24.47;35.41;101933.69;4988474;28;100207;-83
2022/05/15 10:30:33;;;;;;;6.90;1.40;;;;;;;24.57;33.77;101941.00;4988686;28;98031;-86
2022/05/15 10:33:12;;;;;;;4.30;1.37;;;;;;;24.58;34.17;101930.53;4976858;28;97745;-85
2022/05/15 10:35:50;;;;;;;2.80;1.37;;;;;;;24.59;34.20;101940.47;4991425;28;98589;-84
2022/05/15 10:38:36;;;;;;;2.83;1.20;;;;;;;24.68;32.95;101925.84;4993605;28;102264;-84
2022/05/15 10:41:09;;;;;;;4.53;1.80;;;;;;;24.74;34.09;101932.06;5000883;28;97636;-82
2022/05/15 10:44:20;;;;;;;2.10;0.97;;;;;;;24.86;34.15;101927.56;4992965;28;98384;-84
2022/05/15 10:46:52;;;;;;;2.30;1.17;;;;;;;24.93;34.44;101926.81;4953133;28;101811;-85
2022/05/15 10:49:36;;;;;;;3.43;1.43;;;;;;;24.94;33.15;101919.91;5001599;28;97178;-84
2022/05/15 10:52:14;;;;;;;2.57;1.27;;;;;;;25.07;34.59;101924.56;4999931;28;97739;-86
2022/05/15 10:57:36;;;;;;;1.83;1.03;;;;;;;25.41;33.67;101912.88;5002629;28;101751;-85
2022/05/15 11:00:33;;;;;;;2.73;1.17;;;;;;;25.48;32.74;101912.91;4992420;28;100454;-86
2022/05/15 11:03:23;;;;;;;5.70;1.80;;;;;;;25.58;32.78;101910.22;4997471;28;98130;-87
2022/05/15 11:06:07;;;;;;;1.90;1.37;;;;;;;25.68;32.10;101905.50;5004405;28;98966;-86
2022/05/15 11:08:54;;;;;;;1.93;1.10;;;;;;;25.69;32.20;101904.19;4982072;28;99926;-86
2022/05/15 11:11:38;;;;;;;2.20;1.20;;;;;;;25.82;31.64;101901.13;4984439;28;101537;-87
2022/05/15 11:14:25;;;;;;;3.83;1.63;;;;;;;25.98;33.05;101902.56;4990855;28;96845;-88
2022/05/15 11:17:17;;;;;;;1.50;1.00;;;;;;;26.06;32.09;101902.53;4999713;28;99154;-86
2022/05/15 11:19:45;;;;;;;1.33;0.90;;;;;;;26.18;33.15;101910.03;4980178;28;102752;-86
2022/05/15 11:22:45;;;;;;;3.93;1.00;;;;;;;26.31;31.56;101892.81;4984518;28;98435;-86
2022/05/15 11:25:15;;;;;;;4.30;1.10;;;;;;;26.24;32.16;101892.84;4987481;28;100459;-87
2022/05/15 11:27:46;;;;;;;2.03;1.10;;;;;;;26.30;32.58;101887.78;5002589;28;97229;-86
2022/05/15 11:30:31;;;;;;;1.27;1.00;;;;;;;26.44;31.04;101869.97;4997268;28;97945;-87
2022/05/15 11:33:03;;;;;;;2.63;1.10;;;;;;;26.37;30.37;101884.13;4980864;28;98101;-87
2022/05/15 11:35:33;;;;;;;4.47;1.50;;;;;;;26.34;32.10;101886.03;5001894;28;97236;-85
2022/05/15 11:38:07;;;;;;;11.63;1.20;;;;;;;26.36;31.40;101874.19;4965335;28;96798;-87
2022/05/15 11:40:56;;;;;;;2.50;1.27;;;;;;;26.46;31.48;101872.97;4981778;28;96807;-87
2022/05/15 11:43:30;;;;;;;2.17;1.20;;;;;;;26.58;31.11;101859.88;4987163;28;100575;-87
2022/05/15 11:46:03;;;;;;;2.00;1.20;;;;;;;26.78;31.46;101854.50;4992786;28;97028;-87
2022/05/15 11:48:43;;;;;;;6.00;1.40;;;;;;;26.98;30.52;101851.28;4997228;28;96763;-85
2022/05/15 11:51:12;;;;;;;2.43;1.30;;;;;;;27.11;30.81;101856.59;4984274;28;97030;-86
2022/05/15 11:53:48;;;;;;;4.10;1.23;;;;;;;26.99;28.89;101854.84;5000200;28;97133;-88
2022/05/15 11:56:39;;;;;;;2.70;1.50;;;;;;;26.94;29.94;101853.78;4986497;28;97032;-86